EJM505 KABQ-KBZN
Flight info
| Callsign | EJM505 |
|---|---|
| Flight time | 1h 50m |
| Altitude | 43000 |
| Route | LARGO3 RSK BASNN KUJAC TOCUD LOSST1 |
| Aircraft | FA50/M-SDFGHIM1RWXY/H |
Departure
| Time | 2026-04-29 13:27 |
|---|---|
| Airport | Albuquerque International Sunport (KABQ) |
Arrival
| Time | 2026-04-29 15:17 |
|---|---|
| Airport | Bozeman Yellowstone International Airport (KBZN) |
| Time | Latitude | Longitude | Altitude | Speed | Heading |
|---|---|---|---|---|---|
| 2026-04-29 12:40 | 35.02986 | -106.62669 | 5361 ft | 0 kts | 317° |
| 2026-04-29 13:17 | 35.02988 | -106.62671 | 5361 ft | 1 kts | 317° |
| 2026-04-29 13:17 | 35.03004 | -106.62669 | 5361 ft | 4 kts | 39° |
| 2026-04-29 13:17 | 35.03002 | -106.62625 | 5361 ft | 7 kts | 113° |
| 2026-04-29 13:18 | 35.02995 | -106.62550 | 5361 ft | 11 kts | 77° |
| 2026-04-29 13:18 | 35.02956 | -106.62466 | 5361 ft | 14 kts | 134° |
| 2026-04-29 13:18 | 35.02951 | -106.62390 | 5361 ft | 10 kts | 48° |
| 2026-04-29 13:18 | 35.03010 | -106.62319 | 5361 ft | 13 kts | 45° |
| 2026-04-29 13:19 | 35.03083 | -106.62232 | 5361 ft | 16 kts | 47° |
| 2026-04-29 13:19 | 35.03157 | -106.62139 | 5361 ft | 14 kts | 46° |
| 2026-04-29 13:19 | 35.03233 | -106.62049 | 5361 ft | 14 kts | 44° |
| 2026-04-29 13:19 | 35.03307 | -106.61958 | 5361 ft | 16 kts | 45° |
| 2026-04-29 13:20 | 35.03392 | -106.61855 | 5361 ft | 18 kts | 45° |
| 2026-04-29 13:20 | 35.03477 | -106.61751 | 5361 ft | 17 kts | 45° |
| 2026-04-29 13:20 | 35.03559 | -106.61652 | 5361 ft | 16 kts | 45° |
| 2026-04-29 13:20 | 35.03637 | -106.61557 | 5361 ft | 15 kts | 45° |
| 2026-04-29 13:21 | 35.03712 | -106.61467 | 5361 ft | 15 kts | 44° |
| 2026-04-29 13:21 | 35.03789 | -106.61391 | 5361 ft | 14 kts | 16° |
| 2026-04-29 13:21 | 35.03882 | -106.61383 | 5361 ft | 13 kts | 1° |
| 2026-04-29 13:21 | 35.03969 | -106.61377 | 5361 ft | 12 kts | 4° |
| 2026-04-29 13:22 | 35.04051 | -106.61370 | 5361 ft | 11 kts | 4° |
| 2026-04-29 13:22 | 35.04124 | -106.61382 | 5361 ft | 11 kts | 318° |
| 2026-04-29 13:22 | 35.04183 | -106.61467 | 5361 ft | 15 kts | 308° |
| 2026-04-29 13:22 | 35.04245 | -106.61577 | 5361 ft | 14 kts | 280° |
| 2026-04-29 13:23 | 35.04248 | -106.61661 | 5361 ft | 15 kts | 271° |
| 2026-04-29 13:23 | 35.04249 | -106.61798 | 5361 ft | 17 kts | 270° |
| 2026-04-29 13:23 | 35.04249 | -106.61940 | 5361 ft | 17 kts | 269° |
| 2026-04-29 13:23 | 35.04250 | -106.62074 | 5361 ft | 12 kts | 270° |
| 2026-04-29 13:24 | 35.04285 | -106.62129 | 5361 ft | 7 kts | 356° |
| 2026-04-29 13:24 | 35.04323 | -106.62128 | 5361 ft | 4 kts | 1° |
| 2026-04-29 13:24 | 35.04348 | -106.62128 | 5361 ft | 3 kts | 1° |
| 2026-04-29 13:24 | 35.04377 | -106.62127 | 5361 ft | 6 kts | 1° |
| 2026-04-29 13:25 | 35.04428 | -106.62110 | 5361 ft | 10 kts | 53° |
| 2026-04-29 13:25 | 35.04436 | -106.62055 | 5361 ft | 0 kts | 93° |
| 2026-04-29 13:26 | 35.04433 | -106.61991 | 5361 ft | 29 kts | 90° |
| 2026-04-29 13:26 | 35.04424 | -106.61488 | 5361 ft | 89 kts | 90° |
| 2026-04-29 13:26 | 35.04423 | -106.60494 | 5361 ft | 143 kts | 92° |
| 2026-04-29 13:26 | 35.04421 | -106.59132 | 5508 ft | 169 kts | 97° |
| 2026-04-29 13:27 | 35.04486 | -106.57677 | 5992 ft | 174 kts | 89° |
| 2026-04-29 13:27 | 35.04621 | -106.56187 | 6500 ft | 179 kts | 90° |
| 2026-04-29 13:27 | 35.04734 | -106.54637 | 6957 ft | 187 kts | 92° |
| 2026-04-29 13:27 | 35.04674 | -106.53039 | 7393 ft | 190 kts | 103° |
| 2026-04-29 13:28 | 35.04330 | -106.51528 | 7895 ft | 186 kts | 121° |
| 2026-04-29 13:28 | 35.03665 | -106.50152 | 8272 ft | 195 kts | 129° |
| 2026-04-29 13:28 | 35.02698 | -106.48869 | 8536 ft | 213 kts | 156° |
| 2026-04-29 13:28 | 35.01312 | -106.48430 | 8848 ft | 199 kts | 188° |
| 2026-04-29 13:29 | 35.00130 | -106.49013 | 9121 ft | 178 kts | 228° |
| 2026-04-29 13:29 | 34.99709 | -106.50338 | 9392 ft | 168 kts | 270° |
| 2026-04-29 13:29 | 34.99972 | -106.51685 | 9658 ft | 159 kts | 285° |
| 2026-04-29 13:29 | 35.00401 | -106.52872 | 9922 ft | 146 kts | 288° |
| 2026-04-29 13:30 | 35.00847 | -106.53973 | 10216 ft | 147 kts | 289° |
| 2026-04-29 13:30 | 35.01318 | -106.55128 | 10558 ft | 158 kts | 289° |
| 2026-04-29 13:30 | 35.01820 | -106.56389 | 10900 ft | 172 kts | 289° |
| 2026-04-29 13:30 | 35.02357 | -106.57768 | 11241 ft | 188 kts | 289° |
| 2026-04-29 13:31 | 35.02923 | -106.59272 | 11571 ft | 202 kts | 287° |
| 2026-04-29 13:31 | 35.03456 | -106.60904 | 11898 ft | 216 kts | 285° |
| 2026-04-29 13:31 | 35.03938 | -106.62691 | 12218 ft | 227 kts | 280° |
| 2026-04-29 13:31 | 35.04282 | -106.64619 | 12537 ft | 238 kts | 277° |
| 2026-04-29 13:32 | 35.04467 | -106.66655 | 12849 ft | 245 kts | 267° |
| 2026-04-29 13:32 | 35.04400 | -106.68764 | 13165 ft | 253 kts | 264° |
| 2026-04-29 13:32 | 35.04310 | -106.70942 | 13481 ft | 260 kts | 265° |
| 2026-04-29 13:32 | 35.04270 | -106.73174 | 13811 ft | 266 kts | 266° |
| 2026-04-29 13:33 | 35.04343 | -106.75452 | 14141 ft | 272 kts | 276° |
| 2026-04-29 13:33 | 35.04880 | -106.77696 | 14470 ft | 281 kts | 291° |
| 2026-04-29 13:33 | 35.05957 | -106.79730 | 14806 ft | 292 kts | 307° |
| 2026-04-29 13:33 | 35.07534 | -106.81361 | 15138 ft | 304 kts | 324° |
| 2026-04-29 13:34 | 35.09491 | -106.82349 | 15488 ft | 314 kts | 342° |
| 2026-04-29 13:34 | 35.11677 | -106.82700 | 15871 ft | 318 kts | 348° |
| 2026-04-29 13:34 | 35.13874 | -106.83020 | 16246 ft | 317 kts | 348° |
| 2026-04-29 13:34 | 35.16062 | -106.83356 | 16620 ft | 317 kts | 347° |
| 2026-04-29 13:35 | 35.18251 | -106.83693 | 16995 ft | 316 kts | 347° |
| 2026-04-29 13:35 | 35.20435 | -106.84027 | 17369 ft | 315 kts | 347° |
| 2026-04-29 13:35 | 35.22616 | -106.84357 | 17744 ft | 317 kts | 347° |
| 2026-04-29 13:35 | 35.24829 | -106.84697 | 18125 ft | 325 kts | 347° |
| 2026-04-29 13:36 | 35.27117 | -106.85046 | 18508 ft | 338 kts | 347° |
| 2026-04-29 13:36 | 35.29521 | -106.85415 | 18896 ft | 359 kts | 348° |
| 2026-04-29 13:36 | 35.32100 | -106.85810 | 19291 ft | 391 kts | 348° |
| 2026-04-29 13:36 | 35.34923 | -106.86241 | 19691 ft | 424 kts | 348° |
| 2026-04-29 13:37 | 35.37946 | -106.86697 | 20089 ft | 451 kts | 349° |
| 2026-04-29 13:37 | 35.41128 | -106.87180 | 20482 ft | 466 kts | 349° |
| 2026-04-29 13:37 | 35.44364 | -106.87662 | 20865 ft | 470 kts | 349° |
| 2026-04-29 13:37 | 35.47628 | -106.88144 | 21332 ft | 472 kts | 349° |
| 2026-04-29 13:38 | 35.50883 | -106.88626 | 21846 ft | 472 kts | 349° |
| 2026-04-29 13:38 | 35.54106 | -106.89108 | 22362 ft | 474 kts | 348° |
| 2026-04-29 13:38 | 35.57387 | -106.89603 | 22887 ft | 476 kts | 348° |
| 2026-04-29 13:38 | 35.60681 | -106.90100 | 23411 ft | 478 kts | 348° |
| 2026-04-29 13:39 | 35.63990 | -106.90601 | 23957 ft | 478 kts | 348° |
| 2026-04-29 13:39 | 35.67283 | -106.91099 | 24525 ft | 477 kts | 348° |
| 2026-04-29 13:39 | 35.70582 | -106.91599 | 25098 ft | 475 kts | 348° |
| 2026-04-29 13:39 | 35.73854 | -106.92095 | 25670 ft | 473 kts | 348° |
| 2026-04-29 13:40 | 35.77115 | -106.92590 | 26242 ft | 471 kts | 348° |
| 2026-04-29 13:40 | 35.80361 | -106.93083 | 26801 ft | 469 kts | 348° |
| 2026-04-29 13:40 | 35.83598 | -106.93576 | 27279 ft | 468 kts | 348° |
| 2026-04-29 13:40 | 35.86827 | -106.94069 | 27733 ft | 467 kts | 348° |
| 2026-04-29 13:41 | 35.90054 | -106.94561 | 28183 ft | 468 kts | 347° |
| 2026-04-29 13:41 | 35.93287 | -106.95055 | 28633 ft | 468 kts | 347° |
| 2026-04-29 13:41 | 35.96486 | -106.95702 | 29082 ft | 463 kts | 340° |
| 2026-04-29 13:41 | 35.99514 | -106.96931 | 29532 ft | 454 kts | 330° |
| 2026-04-29 13:42 | 36.02255 | -106.98698 | 29978 ft | 445 kts | 321° |
| 2026-04-29 13:42 | 36.04706 | -107.00962 | 30429 ft | 436 kts | 312° |
| 2026-04-29 13:42 | 36.06801 | -107.03616 | 30882 ft | 427 kts | 304° |
| 2026-04-29 13:42 | 36.08679 | -107.06450 | 31335 ft | 424 kts | 303° |
| 2026-04-29 13:43 | 36.10515 | -107.09283 | 31784 ft | 421 kts | 302° |
| 2026-04-29 13:43 | 36.12340 | -107.12109 | 32233 ft | 418 kts | 302° |
| 2026-04-29 13:43 | 36.14149 | -107.14910 | 32678 ft | 415 kts | 302° |
| 2026-04-29 13:43 | 36.15944 | -107.17688 | 33071 ft | 413 kts | 302° |
| 2026-04-29 13:44 | 36.17735 | -107.20460 | 33392 ft | 412 kts | 302° |
| 2026-04-29 13:44 | 36.19528 | -107.23236 | 33676 ft | 413 kts | 302° |
| 2026-04-29 13:44 | 36.21320 | -107.26012 | 33953 ft | 413 kts | 302° |
| 2026-04-29 13:44 | 36.23116 | -107.28793 | 34229 ft | 413 kts | 302° |
| 2026-04-29 13:45 | 36.24910 | -107.31575 | 34505 ft | 412 kts | 302° |
| 2026-04-29 13:45 | 36.26674 | -107.34311 | 34776 ft | 411 kts | 302° |
| 2026-04-29 13:45 | 36.28454 | -107.37074 | 35051 ft | 410 kts | 302° |
| 2026-04-29 13:45 | 36.30220 | -107.39815 | 35521 ft | 403 kts | 302° |
| 2026-04-29 13:46 | 36.31953 | -107.42502 | 36077 ft | 395 kts | 302° |
| 2026-04-29 13:46 | 36.33647 | -107.45134 | 36644 ft | 386 kts | 301° |
| 2026-04-29 13:46 | 36.35310 | -107.47720 | 37215 ft | 378 kts | 301° |
| 2026-04-29 13:46 | 36.36927 | -107.50239 | 37784 ft | 369 kts | 301° |
| 2026-04-29 13:47 | 36.38511 | -107.52708 | 38354 ft | 360 kts | 301° |
| 2026-04-29 13:47 | 36.40070 | -107.55147 | 38536 ft | 363 kts | 301° |
| 2026-04-29 13:47 | 36.43218 | -107.60085 | 38849 ft | 366 kts | 301° |
| 2026-04-29 13:48 | 36.44789 | -107.62537 | 39258 ft | 360 kts | 301° |
| 2026-04-29 13:48 | 36.46334 | -107.64952 | 39694 ft | 354 kts | 301° |
| 2026-04-29 13:48 | 36.47856 | -107.67332 | 40072 ft | 350 kts | 301° |
| 2026-04-29 13:48 | 36.49368 | -107.69705 | 40324 ft | 349 kts | 301° |
| 2026-04-29 13:49 | 36.50875 | -107.72073 | 40535 ft | 349 kts | 300° |
| 2026-04-29 13:49 | 36.52384 | -107.74445 | 40765 ft | 349 kts | 301° |
| 2026-04-29 13:49 | 36.53889 | -107.76811 | 41009 ft | 348 kts | 301° |
| 2026-04-29 13:49 | 36.55391 | -107.79171 | 41256 ft | 346 kts | 301° |
| 2026-04-29 13:50 | 36.56881 | -107.81515 | 41502 ft | 345 kts | 301° |
| 2026-04-29 13:50 | 36.58360 | -107.83861 | 41750 ft | 343 kts | 301° |
| 2026-04-29 13:50 | 36.59822 | -107.86167 | 41993 ft | 342 kts | 301° |
| 2026-04-29 13:50 | 36.61292 | -107.88479 | 42239 ft | 340 kts | 301° |
| 2026-04-29 13:51 | 36.62754 | -107.90780 | 42485 ft | 337 kts | 300° |
| 2026-04-29 13:51 | 36.64202 | -107.93060 | 42733 ft | 335 kts | 301° |
| 2026-04-29 13:51 | 36.65644 | -107.95327 | 42971 ft | 332 kts | 301° |
| 2026-04-29 13:51 | 36.67076 | -107.97606 | 43065 ft | 334 kts | 301° |
| 2026-04-29 13:52 | 36.69982 | -108.02189 | 43067 ft | 344 kts | 301° |
| 2026-04-29 13:52 | 36.73016 | -108.06907 | 43060 ft | 356 kts | 308° |
| 2026-04-29 13:53 | 36.74943 | -108.08933 | 43061 ft | 370 kts | 320° |
| 2026-04-29 13:53 | 36.77280 | -108.10434 | 43061 ft | 385 kts | 334° |
| 2026-04-29 13:53 | 36.79927 | -108.11268 | 43061 ft | 397 kts | 341° |
| 2026-04-29 13:53 | 36.82643 | -108.11977 | 43060 ft | 400 kts | 340° |
| 2026-04-29 13:54 | 36.88124 | -108.13503 | 43061 ft | 406 kts | 340° |
| 2026-04-29 13:54 | 36.93692 | -108.15077 | 43067 ft | 413 kts | 340° |
| 2026-04-29 13:55 | 36.99337 | -108.16671 | 43072 ft | 419 kts | 341° |
| 2026-04-29 13:55 | 37.05042 | -108.18249 | 43078 ft | 425 kts | 341° |
| 2026-04-29 13:56 | 37.10848 | -108.19854 | 43084 ft | 429 kts | 341° |
| 2026-04-29 13:56 | 37.16719 | -108.21482 | 43087 ft | 434 kts | 341° |
| 2026-04-29 13:57 | 37.22634 | -108.23127 | 43091 ft | 437 kts | 341° |
| 2026-04-29 13:57 | 37.27590 | -108.24507 | 43098 ft | 440 kts | 341° |
| 2026-04-29 13:58 | 37.34612 | -108.26467 | 43099 ft | 443 kts | 341° |
| 2026-04-29 13:58 | 37.40615 | -108.28145 | 43099 ft | 446 kts | 341° |
| 2026-04-29 13:59 | 37.46691 | -108.29847 | 43100 ft | 448 kts | 341° |
| 2026-04-29 13:59 | 37.52803 | -108.31561 | 43102 ft | 450 kts | 341° |
| 2026-04-29 14:00 | 37.58944 | -108.33287 | 43105 ft | 452 kts | 341° |
| 2026-04-29 14:00 | 37.65070 | -108.35011 | 43109 ft | 453 kts | 341° |
| 2026-04-29 14:01 | 37.71242 | -108.36751 | 43113 ft | 455 kts | 342° |
| 2026-04-29 14:01 | 37.77424 | -108.38497 | 43116 ft | 455 kts | 342° |
| 2026-04-29 14:02 | 37.83615 | -108.40249 | 43119 ft | 456 kts | 342° |
| 2026-04-29 14:02 | 37.89828 | -108.42010 | 43121 ft | 457 kts | 342° |
| 2026-04-29 14:03 | 37.96037 | -108.43773 | 43117 ft | 457 kts | 342° |
| 2026-04-29 14:03 | 38.02224 | -108.45533 | 43087 ft | 458 kts | 342° |
| 2026-04-29 14:04 | 38.08461 | -108.47311 | 43077 ft | 459 kts | 342° |
| 2026-04-29 14:04 | 38.14701 | -108.49092 | 43068 ft | 460 kts | 342° |
| 2026-04-29 14:05 | 38.20952 | -108.50879 | 43063 ft | 460 kts | 342° |
| 2026-04-29 14:05 | 38.27166 | -108.52659 | 43059 ft | 461 kts | 342° |
| 2026-04-29 14:06 | 38.33430 | -108.54457 | 43051 ft | 461 kts | 342° |
| 2026-04-29 14:06 | 38.39708 | -108.56262 | 43036 ft | 462 kts | 341° |
| 2026-04-29 14:07 | 38.45986 | -108.58070 | 43025 ft | 462 kts | 341° |
| 2026-04-29 14:07 | 38.52233 | -108.59872 | 43009 ft | 463 kts | 342° |
| 2026-04-29 14:08 | 38.58533 | -108.61693 | 42974 ft | 464 kts | 342° |
| 2026-04-29 14:08 | 38.63779 | -108.63212 | 42963 ft | 465 kts | 341° |
| 2026-04-29 14:09 | 38.70096 | -108.65044 | 42954 ft | 465 kts | 341° |
| 2026-04-29 14:09 | 38.76409 | -108.66878 | 42942 ft | 466 kts | 341° |
| 2026-04-29 14:10 | 38.82760 | -108.68728 | 42740 ft | 470 kts | 341° |
| 2026-04-29 14:10 | 38.85961 | -108.69663 | 42618 ft | 473 kts | 341° |
| 2026-04-29 14:10 | 38.89181 | -108.70603 | 42494 ft | 475 kts | 341° |
| 2026-04-29 14:11 | 38.92418 | -108.71548 | 42371 ft | 477 kts | 341° |
| 2026-04-29 14:11 | 38.95663 | -108.72497 | 42247 ft | 479 kts | 341° |
| 2026-04-29 14:11 | 38.98915 | -108.73448 | 42123 ft | 480 kts | 341° |
| 2026-04-29 14:11 | 39.02140 | -108.74391 | 42000 ft | 482 kts | 341° |
| 2026-04-29 14:12 | 39.08711 | -108.76316 | 41910 ft | 480 kts | 341° |
| 2026-04-29 14:12 | 39.15168 | -108.78209 | 41909 ft | 478 kts | 341° |
| 2026-04-29 14:13 | 39.21643 | -108.80115 | 41907 ft | 477 kts | 341° |
| 2026-04-29 14:13 | 39.28113 | -108.82023 | 41906 ft | 476 kts | 341° |
| 2026-04-29 14:14 | 39.34577 | -108.83934 | 41905 ft | 476 kts | 341° |
| 2026-04-29 14:14 | 39.41034 | -108.85845 | 41904 ft | 475 kts | 341° |
| 2026-04-29 14:15 | 39.47483 | -108.87758 | 41903 ft | 475 kts | 341° |
| 2026-04-29 14:15 | 39.53932 | -108.89675 | 41902 ft | 475 kts | 341° |
| 2026-04-29 14:16 | 39.60347 | -108.91585 | 41900 ft | 475 kts | 341° |
| 2026-04-29 14:16 | 39.66800 | -108.93510 | 41899 ft | 476 kts | 341° |
| 2026-04-29 14:17 | 39.73243 | -108.95436 | 41899 ft | 476 kts | 341° |
| 2026-04-29 14:17 | 39.79712 | -108.97373 | 41898 ft | 476 kts | 341° |
| 2026-04-29 14:18 | 39.86133 | -108.99299 | 41897 ft | 476 kts | 341° |
| 2026-04-29 14:18 | 39.92598 | -109.01242 | 41897 ft | 476 kts | 341° |
| 2026-04-29 14:19 | 39.99060 | -109.03207 | 41897 ft | 476 kts | 341° |
| 2026-04-29 14:19 | 40.05523 | -109.05197 | 41896 ft | 477 kts | 341° |
| 2026-04-29 14:20 | 40.11986 | -109.07190 | 41896 ft | 478 kts | 341° |
| 2026-04-29 14:20 | 40.18470 | -109.09191 | 41894 ft | 478 kts | 341° |
| 2026-04-29 14:21 | 40.24954 | -109.11194 | 41892 ft | 479 kts | 341° |
| 2026-04-29 14:21 | 40.31404 | -109.13189 | 41888 ft | 479 kts | 341° |
| 2026-04-29 14:22 | 40.37902 | -109.15204 | 41885 ft | 480 kts | 341° |
| 2026-04-29 14:22 | 40.44406 | -109.17225 | 41883 ft | 480 kts | 341° |
| 2026-04-29 14:23 | 40.50915 | -109.19251 | 41884 ft | 481 kts | 341° |
| 2026-04-29 14:23 | 40.57440 | -109.21286 | 41883 ft | 481 kts | 341° |
| 2026-04-29 14:24 | 40.63932 | -109.23315 | 41883 ft | 481 kts | 341° |
| 2026-04-29 14:24 | 40.70451 | -109.25356 | 41884 ft | 481 kts | 341° |
| 2026-04-29 14:25 | 40.76972 | -109.27402 | 41884 ft | 482 kts | 341° |
| 2026-04-29 14:25 | 40.83499 | -109.29455 | 41885 ft | 482 kts | 341° |
| 2026-04-29 14:26 | 40.90030 | -109.31513 | 41885 ft | 482 kts | 341° |
| 2026-04-29 14:26 | 40.96520 | -109.33562 | 41886 ft | 482 kts | 341° |
| 2026-04-29 14:27 | 41.03057 | -109.35630 | 41886 ft | 483 kts | 341° |
| 2026-04-29 14:28 | 41.12894 | -109.38750 | 41887 ft | 484 kts | 341° |
| 2026-04-29 14:28 | 41.19397 | -109.40818 | 41887 ft | 484 kts | 341° |
| 2026-04-29 14:29 | 41.25961 | -109.42909 | 41886 ft | 484 kts | 341° |
| 2026-04-29 14:29 | 41.32515 | -109.45002 | 41886 ft | 485 kts | 341° |
| 2026-04-29 14:30 | 41.39088 | -109.47105 | 41885 ft | 485 kts | 341° |
| 2026-04-29 14:30 | 41.45666 | -109.49214 | 41885 ft | 485 kts | 341° |
| 2026-04-29 14:31 | 41.52200 | -109.51313 | 41885 ft | 486 kts | 341° |
| 2026-04-29 14:31 | 41.58781 | -109.53432 | 41884 ft | 486 kts | 341° |
| 2026-04-29 14:32 | 41.65382 | -109.55562 | 41880 ft | 487 kts | 341° |
| 2026-04-29 14:32 | 41.71974 | -109.57693 | 41879 ft | 487 kts | 341° |
| 2026-04-29 14:33 | 41.78573 | -109.59831 | 41877 ft | 488 kts | 341° |
| 2026-04-29 14:33 | 41.85175 | -109.61975 | 41875 ft | 488 kts | 341° |
| 2026-04-29 14:34 | 41.91738 | -109.64111 | 41872 ft | 489 kts | 341° |
| 2026-04-29 14:34 | 41.98354 | -109.66268 | 41866 ft | 489 kts | 341° |
| 2026-04-29 14:35 | 42.04975 | -109.68432 | 41864 ft | 489 kts | 341° |
| 2026-04-29 14:35 | 42.11597 | -109.70600 | 41863 ft | 490 kts | 341° |
| 2026-04-29 14:36 | 42.18215 | -109.72773 | 41862 ft | 490 kts | 341° |
| 2026-04-29 14:36 | 42.24840 | -109.74951 | 41861 ft | 490 kts | 341° |
| 2026-04-29 14:37 | 42.31535 | -109.76670 | 41862 ft | 494 kts | 347° |
| 2026-04-29 14:37 | 42.38356 | -109.77949 | 41862 ft | 494 kts | 347° |
| 2026-04-29 14:38 | 42.45167 | -109.79262 | 41864 ft | 494 kts | 347° |
| 2026-04-29 14:38 | 42.51974 | -109.80644 | 41868 ft | 494 kts | 347° |
| 2026-04-29 14:39 | 42.58771 | -109.82058 | 41869 ft | 494 kts | 347° |
| 2026-04-29 14:39 | 42.65531 | -109.83478 | 41869 ft | 494 kts | 347° |
| 2026-04-29 14:40 | 42.72337 | -109.84912 | 41869 ft | 494 kts | 347° |
| 2026-04-29 14:40 | 42.79141 | -109.86349 | 41869 ft | 494 kts | 347° |
| 2026-04-29 14:41 | 42.85942 | -109.87789 | 41869 ft | 495 kts | 347° |
| 2026-04-29 14:41 | 42.92745 | -109.89232 | 41867 ft | 495 kts | 347° |
| 2026-04-29 14:42 | 42.99515 | -109.90671 | 41865 ft | 495 kts | 347° |
| 2026-04-29 14:42 | 43.06329 | -109.92124 | 41861 ft | 496 kts | 347° |
| 2026-04-29 14:43 | 43.13144 | -109.93579 | 41856 ft | 496 kts | 347° |
| 2026-04-29 14:43 | 43.19973 | -109.95041 | 41850 ft | 496 kts | 347° |
| 2026-04-29 14:44 | 43.26799 | -109.96505 | 41844 ft | 497 kts | 347° |
| 2026-04-29 14:44 | 43.33638 | -109.97976 | 41839 ft | 497 kts | 347° |
| 2026-04-29 14:45 | 43.40438 | -109.99442 | 41834 ft | 498 kts | 347° |
| 2026-04-29 14:45 | 43.47301 | -110.00924 | 41831 ft | 498 kts | 347° |
| 2026-04-29 14:46 | 43.54162 | -110.02409 | 41830 ft | 499 kts | 347° |
| 2026-04-29 14:46 | 43.61022 | -110.03898 | 41826 ft | 499 kts | 347° |
| 2026-04-29 14:47 | 43.67858 | -110.05385 | 41827 ft | 500 kts | 347° |
| 2026-04-29 14:47 | 43.74733 | -110.06883 | 41829 ft | 498 kts | 347° |
| 2026-04-29 14:48 | 43.81526 | -110.08364 | 41830 ft | 491 kts | 347° |
| 2026-04-29 14:48 | 43.88237 | -110.09832 | 41833 ft | 485 kts | 347° |
| 2026-04-29 14:49 | 43.94905 | -110.11299 | 41382 ft | 488 kts | 347° |
| 2026-04-29 14:49 | 43.98238 | -110.12032 | 40862 ft | 483 kts | 347° |
| 2026-04-29 14:49 | 44.01512 | -110.12753 | 40343 ft | 479 kts | 346° |
| 2026-04-29 14:49 | 44.04790 | -110.13726 | 39810 ft | 471 kts | 339° |
| 2026-04-29 14:50 | 44.07825 | -110.15160 | 39293 ft | 463 kts | 332° |
| 2026-04-29 14:50 | 44.10725 | -110.17029 | 38769 ft | 456 kts | 326° |
| 2026-04-29 14:50 | 44.13536 | -110.19091 | 38242 ft | 453 kts | 326° |
| 2026-04-29 14:50 | 44.16312 | -110.21166 | 37717 ft | 451 kts | 325° |
| 2026-04-29 14:51 | 44.19067 | -110.23233 | 37193 ft | 449 kts | 325° |
| 2026-04-29 14:51 | 44.21818 | -110.25298 | 36668 ft | 448 kts | 324° |
| 2026-04-29 14:51 | 44.24517 | -110.27321 | 36151 ft | 443 kts | 324° |
| 2026-04-29 14:51 | 44.27215 | -110.29330 | 35624 ft | 434 kts | 324° |
| 2026-04-29 14:52 | 44.29856 | -110.31301 | 35099 ft | 426 kts | 323° |
| 2026-04-29 14:52 | 44.32464 | -110.33259 | 34573 ft | 424 kts | 323° |
| 2026-04-29 14:52 | 44.35053 | -110.35217 | 34049 ft | 422 kts | 323° |
| 2026-04-29 14:52 | 44.37631 | -110.37165 | 33525 ft | 420 kts | 323° |
| 2026-04-29 14:53 | 44.40176 | -110.39085 | 33005 ft | 411 kts | 323° |
| 2026-04-29 14:53 | 44.42674 | -110.40972 | 32479 ft | 404 kts | 323° |
| 2026-04-29 14:53 | 44.45129 | -110.42825 | 31954 ft | 398 kts | 324° |
| 2026-04-29 14:53 | 44.47560 | -110.44662 | 31428 ft | 394 kts | 324° |
| 2026-04-29 14:54 | 44.49957 | -110.46474 | 30903 ft | 389 kts | 324° |
| 2026-04-29 14:54 | 44.52278 | -110.48229 | 30385 ft | 381 kts | 324° |
| 2026-04-29 14:54 | 44.54585 | -110.49976 | 29859 ft | 373 kts | 324° |
| 2026-04-29 14:54 | 44.56851 | -110.51693 | 29331 ft | 366 kts | 325° |
| 2026-04-29 14:55 | 44.59069 | -110.53378 | 28803 ft | 359 kts | 325° |
| 2026-04-29 14:55 | 44.61238 | -110.55026 | 28276 ft | 351 kts | 325° |
| 2026-04-29 14:55 | 44.63363 | -110.56642 | 27749 ft | 343 kts | 325° |
| 2026-04-29 14:55 | 44.65439 | -110.58221 | 27221 ft | 335 kts | 325° |
| 2026-04-29 14:56 | 44.67466 | -110.59764 | 26693 ft | 327 kts | 325° |
| 2026-04-29 14:56 | 44.68781 | -110.60765 | 26343 ft | 321 kts | 325° |
| 2026-04-29 14:56 | 44.70717 | -110.62242 | 25814 ft | 312 kts | 325° |
| 2026-04-29 14:56 | 44.72603 | -110.63682 | 25282 ft | 304 kts | 325° |
| 2026-04-29 14:57 | 44.74436 | -110.65090 | 24755 ft | 296 kts | 325° |
| 2026-04-29 14:57 | 44.76226 | -110.66458 | 24227 ft | 290 kts | 324° |
| 2026-04-29 14:57 | 44.77950 | -110.67886 | 23697 ft | 286 kts | 324° |
| 2026-04-29 14:57 | 44.79680 | -110.69253 | 23177 ft | 283 kts | 326° |
| 2026-04-29 14:58 | 44.81399 | -110.70527 | 22651 ft | 282 kts | 327° |
| 2026-04-29 14:58 | 44.83137 | -110.71800 | 22128 ft | 280 kts | 327° |
| 2026-04-29 14:58 | 44.84847 | -110.73087 | 21602 ft | 277 kts | 325° |
| 2026-04-29 14:58 | 44.86547 | -110.74356 | 21076 ft | 276 kts | 326° |
| 2026-04-29 14:59 | 44.88228 | -110.75639 | 20550 ft | 274 kts | 326° |
| 2026-04-29 14:59 | 44.89892 | -110.76925 | 20026 ft | 272 kts | 326° |
| 2026-04-29 14:59 | 44.91551 | -110.78205 | 19501 ft | 271 kts | 326° |
| 2026-04-29 14:59 | 44.93201 | -110.79479 | 18975 ft | 269 kts | 326° |
| 2026-04-29 15:00 | 44.94841 | -110.80736 | 18451 ft | 268 kts | 326° |
| 2026-04-29 15:00 | 44.96476 | -110.81995 | 17926 ft | 267 kts | 326° |
| 2026-04-29 15:00 | 44.98087 | -110.83240 | 17408 ft | 268 kts | 326° |
| 2026-04-29 15:00 | 44.99721 | -110.84503 | 17087 ft | 262 kts | 326° |
| 2026-04-29 15:01 | 45.01293 | -110.85720 | 17014 ft | 256 kts | 326° |
| 2026-04-29 15:01 | 45.02855 | -110.86929 | 16997 ft | 256 kts | 326° |
| 2026-04-29 15:01 | 45.04423 | -110.88141 | 16995 ft | 257 kts | 326° |
| 2026-04-29 15:01 | 45.05995 | -110.89355 | 16991 ft | 257 kts | 327° |
| 2026-04-29 15:02 | 45.07571 | -110.90574 | 16989 ft | 258 kts | 326° |
| 2026-04-29 15:02 | 45.09146 | -110.91798 | 16994 ft | 258 kts | 326° |
| 2026-04-29 15:02 | 45.10720 | -110.93020 | 16996 ft | 258 kts | 326° |
| 2026-04-29 15:02 | 45.12314 | -110.94212 | 16996 ft | 260 kts | 330° |
| 2026-04-29 15:03 | 45.13999 | -110.95184 | 16994 ft | 262 kts | 337° |
| 2026-04-29 15:03 | 45.15762 | -110.95891 | 16992 ft | 265 kts | 342° |
| 2026-04-29 15:03 | 45.17556 | -110.96487 | 16989 ft | 265 kts | 342° |
| 2026-04-29 15:03 | 45.19333 | -110.97079 | 16986 ft | 265 kts | 342° |
| 2026-04-29 15:04 | 45.21138 | -110.97679 | 16859 ft | 270 kts | 343° |
| 2026-04-29 15:04 | 45.22955 | -110.98284 | 16427 ft | 265 kts | 343° |
| 2026-04-29 15:04 | 45.24748 | -110.98879 | 15976 ft | 265 kts | 343° |
| 2026-04-29 15:04 | 45.26538 | -110.99472 | 15531 ft | 264 kts | 343° |
| 2026-04-29 15:05 | 45.28325 | -111.00069 | 15082 ft | 264 kts | 343° |
| 2026-04-29 15:05 | 45.30111 | -111.00662 | 14629 ft | 263 kts | 343° |
| 2026-04-29 15:05 | 45.31890 | -111.01258 | 14179 ft | 263 kts | 343° |
| 2026-04-29 15:05 | 45.33671 | -111.01858 | 13726 ft | 262 kts | 342° |
| 2026-04-29 15:06 | 45.35441 | -111.02454 | 13273 ft | 261 kts | 343° |
| 2026-04-29 15:06 | 45.37191 | -111.03033 | 12834 ft | 261 kts | 343° |
| 2026-04-29 15:06 | 45.38960 | -111.03623 | 12382 ft | 261 kts | 343° |
| 2026-04-29 15:06 | 45.40715 | -111.04208 | 12107 ft | 253 kts | 343° |
| 2026-04-29 15:07 | 45.42397 | -111.04767 | 12024 ft | 247 kts | 343° |
| 2026-04-29 15:07 | 45.44004 | -111.05308 | 11998 ft | 246 kts | 343° |
| 2026-04-29 15:07 | 45.45669 | -111.05868 | 11998 ft | 244 kts | 343° |
| 2026-04-29 15:07 | 45.47319 | -111.06420 | 11998 ft | 243 kts | 343° |
| 2026-04-29 15:08 | 45.48963 | -111.06966 | 11999 ft | 242 kts | 343° |
| 2026-04-29 15:08 | 45.50602 | -111.07514 | 11998 ft | 241 kts | 343° |
| 2026-04-29 15:08 | 45.52234 | -111.08068 | 11996 ft | 240 kts | 343° |
| 2026-04-29 15:08 | 45.53857 | -111.08618 | 11998 ft | 239 kts | 343° |
| 2026-04-29 15:09 | 45.55457 | -111.09157 | 11997 ft | 239 kts | 343° |
| 2026-04-29 15:09 | 45.57078 | -111.09700 | 11995 ft | 238 kts | 343° |
| 2026-04-29 15:09 | 45.58694 | -111.10250 | 11992 ft | 238 kts | 343° |
| 2026-04-29 15:09 | 45.60303 | -111.10789 | 11995 ft | 237 kts | 343° |
| 2026-04-29 15:10 | 45.61909 | -111.11332 | 11993 ft | 236 kts | 341° |
| 2026-04-29 15:10 | 45.63350 | -111.12327 | 11993 ft | 227 kts | 314° |
| 2026-04-29 15:10 | 45.64299 | -111.14057 | 11998 ft | 219 kts | 296° |
| 2026-04-29 15:10 | 45.65265 | -111.15768 | 11996 ft | 224 kts | 311° |
| 2026-04-29 15:11 | 45.66404 | -111.17337 | 11688 ft | 228 kts | 311° |
| 2026-04-29 15:11 | 45.67525 | -111.18867 | 11300 ft | 218 kts | 311° |
| 2026-04-29 15:11 | 45.68610 | -111.20357 | 10896 ft | 215 kts | 312° |
| 2026-04-29 15:11 | 45.69683 | -111.21832 | 10493 ft | 213 kts | 313° |
| 2026-04-29 15:12 | 45.70747 | -111.23293 | 10091 ft | 212 kts | 313° |
| 2026-04-29 15:12 | 45.71803 | -111.24747 | 9691 ft | 210 kts | 314° |
| 2026-04-29 15:12 | 45.72857 | -111.26199 | 9290 ft | 210 kts | 315° |
| 2026-04-29 15:12 | 45.73906 | -111.27644 | 8887 ft | 209 kts | 315° |
| 2026-04-29 15:13 | 45.74937 | -111.29061 | 8493 ft | 208 kts | 315° |
| 2026-04-29 15:13 | 45.76043 | -111.30388 | 8093 ft | 208 kts | 328° |
| 2026-04-29 15:13 | 45.77379 | -111.31151 | 7693 ft | 207 kts | 349° |
| 2026-04-29 15:13 | 45.78809 | -111.31208 | 7300 ft | 206 kts | 7° |
| 2026-04-29 15:14 | 45.80220 | -111.30908 | 6909 ft | 201 kts | 15° |
| 2026-04-29 15:14 | 45.81437 | -111.30167 | 6566 ft | 184 kts | 33° |
| 2026-04-29 15:14 | 45.82326 | -111.29036 | 6433 ft | 159 kts | 52° |
| 2026-04-29 15:14 | 45.82896 | -111.27744 | 6385 ft | 150 kts | 67° |
| 2026-04-29 15:15 | 45.83203 | -111.26320 | 6401 ft | 150 kts | 82° |
| 2026-04-29 15:15 | 45.83236 | -111.24830 | 6402 ft | 150 kts | 97° |
| 2026-04-29 15:15 | 45.83105 | -111.23357 | 6404 ft | 151 kts | 99° |
| 2026-04-29 15:15 | 45.82866 | -111.21867 | 6317 ft | 156 kts | 120° |
| 2026-04-29 15:16 | 45.82146 | -111.20667 | 6173 ft | 163 kts | 136° |
| 2026-04-29 15:16 | 45.81285 | -111.19595 | 5969 ft | 159 kts | 147° |
| 2026-04-29 15:16 | 45.80381 | -111.18795 | 5486 ft | 145 kts | 144° |
| 2026-04-29 15:16 | 45.79637 | -111.17863 | 4843 ft | 139 kts | 135° |
| 2026-04-29 15:17 | 45.78989 | -111.16898 | 4527 ft | 133 kts | 136° |
| 2026-04-29 15:17 | 45.78355 | -111.16007 | 4477 ft | 102 kts | 137° |
| 2026-04-29 15:17 | 45.78060 | -111.15606 | 4477 ft | 27 kts | 136° |
| 2026-04-29 15:17 | 45.77958 | -111.15508 | 4477 ft | 12 kts | 185° |
| 2026-04-29 15:18 | 45.77909 | -111.15575 | 4477 ft | 8 kts | 243° |
| 2026-04-29 15:18 | 45.77887 | -111.15636 | 4477 ft | 5 kts | 243° |
| 2026-04-29 15:18 | 45.77874 | -111.15673 | 4477 ft | 4 kts | 243° |
| 2026-04-29 15:18 | 45.77850 | -111.15731 | 4477 ft | 12 kts | 233° |
| 2026-04-29 15:19 | 45.77771 | -111.15780 | 4477 ft | 13 kts | 153° |
| 2026-04-29 15:19 | 45.77757 | -111.15765 | 4477 ft | 0 kts | 126° |